El Vendrell, Spain
Current Conditions -  °F | °C
As of 8:00 PM on Sunday 23 Nov 2014 (Local Time) from LERS Reporting Station
Few Clouds Few Clouds  
Wind Chill: 18°   Ceiling: Unl
Heat Index: 18°   Visibility: 6mi
Dew Point: 16°   Wind: 6mph
Humidity: 88%   Direction: 70°ENE
Pressure: 30"   Gusts: NA
Location:  41.22°N, 1.53°E
Report Text: LERS 231900Z 07005KT 040V100 9999 FEW020 18/16 Q1016
Loading
Personal Weather Stations






























Interactive Weather Map New forecast layout! Learn more

10-Day Weather Forecast

Advertisements
Track Severe Weather on mobile